sensor_id;sensor_type;location;lat;lon;timestamp;pressure;altitude;pressure_sealevel;temperature;humidity
44992;BME280;56865;51.618;7.406;2023-08-21T00:01:03;101731.13;;;25.30;100.00
44992;BME280;56865;51.618;7.406;2023-08-21T00:03:34;101750.81;;;25.52;100.00
44992;BME280;56865;51.618;7.406;2023-08-21T00:06:04;101742.91;;;25.56;100.00
44992;BME280;56865;51.618;7.406;2023-08-21T00:08:34;101741.25;;;25.51;100.00
44992;BME280;56865;51.618;7.406;2023-08-21T00:11:03;101748.94;;;25.58;100.00
44992;BME280;56865;51.618;7.406;2023-08-21T00:13:36;101748.09;;;25.58;100.00
44992;BME280;56865;51.618;7.406;2023-08-21T00:16:06;101761.84;;;25.68;100.00
44992;BME280;56865;51.618;7.406;2023-08-21T00:18:36;101749.59;;;25.70;100.00
44992;BME280;56865;51.618;7.406;2023-08-21T00:21:06;101736.69;;;25.63;100.00
44992;BME280;56865;51.618;7.406;2023-08-21T00:23:36;101744.56;;;25.60;100.00
44992;BME280;56865;51.618;7.406;2023-08-21T00:26:06;101725.88;;;25.34;100.00
44992;BME280;56865;51.618;7.406;2023-08-21T00:28:38;101720.84;;;25.21;100.00
44992;BME280;56865;51.618;7.406;2023-08-21T00:31:08;101727.56;;;25.38;100.00
44992;BME280;56865;51.618;7.406;2023-08-21T00:33:39;101730.34;;;25.25;100.00
44992;BME280;56865;51.618;7.406;2023-08-21T00:36:09;101726.75;;;25.33;100.00
44992;BME280;56865;51.618;7.406;2023-08-21T00:38:39;101739.53;;;25.51;100.00
44992;BME280;56865;51.618;7.406;2023-08-21T00:41:10;101737.66;;;25.58;100.00
44992;BME280;56865;51.618;7.406;2023-08-21T00:43:42;101732.47;;;25.56;100.00
44992;BME280;56865;51.618;7.406;2023-08-21T00:46:12;101719.63;;;25.44;100.00
44992;BME280;56865;51.618;7.406;2023-08-21T00:48:42;101737.56;;;25.62;100.00
44992;BME280;56865;51.618;7.406;2023-08-21T00:51:12;101730.81;;;25.52;100.00
44992;BME280;56865;51.618;7.406;2023-08-21T00:53:43;101723.97;;;25.45;100.00
44992;BME280;56865;51.618;7.406;2023-08-21T00:56:16;101729.00;;;25.54;100.00
44992;BME280;56865;51.618;7.406;2023-08-21T00:58:49;101727.41;;;25.45;100.00
44992;BME280;56865;51.618;7.406;2023-08-21T01:01:19;101715.50;;;25.29;100.00
44992;BME280;56865;51.618;7.406;2023-08-21T01:03:52;101709.41;;;25.30;100.00
44992;BME280;56865;51.618;7.406;2023-08-21T01:06:22;101721.59;;;25.28;100.00
44992;BME280;56865;51.618;7.406;2023-08-21T01:08:53;101728.69;;;25.21;100.00
44992;BME280;56865;51.618;7.406;2023-08-21T01:11:27;101732.84;;;25.31;100.00
44992;BME280;56865;51.618;7.406;2023-08-21T01:14:13;101750.84;;;25.50;100.00
44992;BME280;56865;51.618;7.406;2023-08-21T01:16:47;101757.75;;;25.53;100.00
44992;BME280;56865;51.618;7.406;2023-08-21T01:19:26;101747.13;;;25.62;100.00
44992;BME280;56865;51.618;7.406;2023-08-21T01:22:00;101750.41;;;25.75;100.00
44992;BME280;56865;51.618;7.406;2023-08-21T01:24:32;101726.94;;;25.72;100.00
44992;BME280;56865;51.618;7.406;2023-08-21T01:27:02;101725.19;;;25.74;100.00
44992;BME280;56865;51.618;7.406;2023-08-21T01:29:32;101698.34;;;25.66;100.00
44992;BME280;56865;51.618;7.406;2023-08-21T01:32:05;101701.06;;;25.59;100.00
44992;BME280;56865;51.618;7.406;2023-08-21T01:34:36;101709.84;;;25.55;100.00
44992;BME280;56865;51.618;7.406;2023-08-21T01:37:06;101689.84;;;25.54;100.00
44992;BME280;56865;51.618;7.406;2023-08-21T01:39:39;101706.47;;;25.50;100.00
44992;BME280;56865;51.618;7.406;2023-08-21T01:42:09;101706.16;;;25.66;100.00
44992;BME280;56865;51.618;7.406;2023-08-21T01:44:39;101699.38;;;25.57;100.00
44992;BME280;56865;51.618;7.406;2023-08-21T01:47:12;101708.16;;;25.53;100.00
44992;BME280;56865;51.618;7.406;2023-08-21T01:49:42;101694.59;;;25.32;100.00
44992;BME280;56865;51.618;7.406;2023-08-21T01:52:11;101695.41;;;25.34;100.00
44992;BME280;56865;51.618;7.406;2023-08-21T01:54:44;101698.00;;;25.34;100.00
44992;BME280;56865;51.618;7.406;2023-08-21T01:57:16;101709.03;;;25.52;100.00
44992;BME280;56865;51.618;7.406;2023-08-21T01:59:46;101705.47;;;25.57;100.00
44992;BME280;56865;51.618;7.406;2023-08-21T02:02:16;101687.53;;;25.36;100.00
44992;BME280;56865;51.618;7.406;2023-08-21T02:04:46;101695.72;;;25.15;100.00
44992;BME280;56865;51.618;7.406;2023-08-21T02:07:16;101687.09;;;25.10;100.00
44992;BME280;56865;51.618;7.406;2023-08-21T02:09:48;101687.19;;;25.07;100.00
44992;BME280;56865;51.618;7.406;2023-08-21T02:12:18;101681.88;;;25.12;100.00
44992;BME280;56865;51.618;7.406;2023-08-21T02:14:48;101694.81;;;25.18;100.00
44992;BME280;56865;51.618;7.406;2023-08-21T02:17:17;101690.53;;;25.14;100.00
44992;BME280;56865;51.618;7.406;2023-08-21T02:19:47;101695.78;;;25.12;100.00
44992;BME280;56865;51.618;7.406;2023-08-21T02:22:17;101686.91;;;25.23;100.00
44992;BME280;56865;51.618;7.406;2023-08-21T02:24:49;101700.53;;;25.40;100.00
44992;BME280;56865;51.618;7.406;2023-08-21T02:27:19;101690.22;;;25.33;100.00
44992;BME280;56865;51.618;7.406;2023-08-21T02:29:48;101684.38;;;25.18;100.00
44992;BME280;56865;51.618;7.406;2023-08-21T02:32:18;101698.16;;;25.26;100.00
44992;BME280;56865;51.618;7.406;2023-08-21T02:34:51;101702.31;;;25.40;100.00
44992;BME280;56865;51.618;7.406;2023-08-21T02:37:22;101693.06;;;25.19;100.00
44992;BME280;56865;51.618;7.406;2023-08-21T02:39:55;101688.03;;;25.09;100.00
44992;BME280;56865;51.618;7.406;2023-08-21T02:42:26;101703.47;;;25.20;100.00
44992;BME280;56865;51.618;7.406;2023-08-21T02:44:55;101703.44;;;25.23;100.00
44992;BME280;56865;51.618;7.406;2023-08-21T02:47:25;101702.84;;;25.07;100.00
44992;BME280;56865;51.618;7.406;2023-08-21T02:49:55;101701.91;;;25.10;100.00
44992;BME280;56865;51.618;7.406;2023-08-21T02:52:25;101711.19;;;25.26;100.00
44992;BME280;56865;51.618;7.406;2023-08-21T02:54:58;101692.41;;;25.07;100.00
44992;BME280;56865;51.618;7.406;2023-08-21T02:57:28;101696.28;;;24.81;100.00
44992;BME280;56865;51.618;7.406;2023-08-21T02:59:58;101704.22;;;24.74;100.00
44992;BME280;56865;51.618;7.406;2023-08-21T03:02:28;101707.81;;;24.63;100.00
44992;BME280;56865;51.618;7.406;2023-08-21T03:04:58;101704.31;;;24.69;100.00
44992;BME280;56865;51.618;7.406;2023-08-21T03:07:28;101700.09;;;24.57;100.00
44992;BME280;56865;51.618;7.406;2023-08-21T03:10:00;101690.44;;;24.65;100.00
44992;BME280;56865;51.618;7.406;2023-08-21T03:12:30;101697.63;;;24.48;100.00
44992;BME280;56865;51.618;7.406;2023-08-21T03:15:00;101704.66;;;24.41;100.00
44992;BME280;56865;51.618;7.406;2023-08-21T03:17:32;101690.03;;;24.31;100.00
44992;BME280;56865;51.618;7.406;2023-08-21T03:20:02;101696.16;;;24.28;100.00
44992;BME280;56865;51.618;7.406;2023-08-21T03:22:33;101696.97;;;24.32;100.00
44992;BME280;56865;51.618;7.406;2023-08-21T03:25:07;101701.41;;;24.25;100.00
44992;BME280;56865;51.618;7.406;2023-08-21T03:27:37;101693.69;;;24.16;100.00
44992;BME280;56865;51.618;7.406;2023-08-21T03:30:11;101688.41;;;24.22;100.00
44992;BME280;56865;51.618;7.406;2023-08-21T03:32:41;101683.22;;;24.21;100.00
44992;BME280;56865;51.618;7.406;2023-08-21T03:35:11;101683.09;;;24.30;100.00
44992;BME280;56865;51.618;7.406;2023-08-21T03:37:41;101686.56;;;24.30;100.00
44992;BME280;56865;51.618;7.406;2023-08-21T03:40:13;101709.66;;;24.55;100.00
44992;BME280;56865;51.618;7.406;2023-08-21T03:42:43;101685.50;;;24.44;100.00
44992;BME280;56865;51.618;7.406;2023-08-21T03:45:15;101683.16;;;24.25;100.00
44992;BME280;56865;51.618;7.406;2023-08-21T03:47:45;101687.59;;;24.17;100.00
44992;BME280;56865;51.618;7.406;2023-08-21T03:50:15;101681.00;;;23.88;100.00
44992;BME280;56865;51.618;7.406;2023-08-21T03:52:45;101686.94;;;24.01;100.00
44992;BME280;56865;51.618;7.406;2023-08-21T03:55:18;101693.91;;;23.97;100.00
44992;BME280;56865;51.618;7.406;2023-08-21T03:57:47;101685.06;;;24.12;100.00
44992;BME280;56865;51.618;7.406;2023-08-21T04:00:17;101676.59;;;23.96;100.00
44992;BME280;56865;51.618;7.406;2023-08-21T04:02:47;101673.16;;;23.93;100.00
44992;BME280;56865;51.618;7.406;2023-08-21T04:05:17;101673.91;;;24.02;100.00
44992;BME280;56865;51.618;7.406;2023-08-21T04:07:47;101675.22;;;24.34;100.00
44992;BME280;56865;51.618;7.406;2023-08-21T04:10:19;101678.03;;;24.19;100.00
44992;BME280;56865;51.618;7.406;2023-08-21T04:12:49;101684.78;;;24.32;100.00
44992;BME280;56865;51.618;7.406;2023-08-21T04:15:18;101677.25;;;24.14;100.00
44992;BME280;56865;51.618;7.406;2023-08-21T04:17:48;101683.94;;;24.32;100.00
44992;BME280;56865;51.618;7.406;2023-08-21T04:20:18;101687.41;;;24.32;100.00
44992;BME280;56865;51.618;7.406;2023-08-21T04:22:47;101684.34;;;24.65;100.00
44992;BME280;56865;51.618;7.406;2023-08-21T04:25:20;101672.56;;;24.39;100.00
44992;BME280;56865;51.618;7.406;2023-08-21T04:27:49;101682.75;;;24.55;100.00
44992;BME280;56865;51.618;7.406;2023-08-21T04:30:19;101690.16;;;24.84;100.00
44992;BME280;56865;51.618;7.406;2023-08-21T04:32:49;101679.03;;;24.74;100.00
44992;BME280;56865;51.618;7.406;2023-08-21T04:35:18;101673.47;;;24.37;100.00
44992;BME280;56865;51.618;7.406;2023-08-21T04:37:48;101686.09;;;24.66;100.00
44992;BME280;56865;51.618;7.406;2023-08-21T04:40:20;101677.75;;;24.41;100.00
44992;BME280;56865;51.618;7.406;2023-08-21T04:42:50;101691.31;;;24.61;100.00
44992;BME280;56865;51.618;7.406;2023-08-21T04:45:20;101685.94;;;24.75;100.00
44992;BME280;56865;51.618;7.406;2023-08-21T04:47:50;101687.03;;;24.60;100.00
44992;BME280;56865;51.618;7.406;2023-08-21T04:50:22;101688.81;;;24.55;100.00
44992;BME280;56865;51.618;7.406;2023-08-21T04:52:51;101700.03;;;23.96;100.00
44992;BME280;56865;51.618;7.406;2023-08-21T04:55:23;101690.56;;;23.84;100.00
44992;BME280;56865;51.618;7.406;2023-08-21T04:57:53;101700.28;;;23.72;100.00
44992;BME280;56865;51.618;7.406;2023-08-21T05:00:23;101705.28;;;23.87;100.00
44992;BME280;56865;51.618;7.406;2023-08-21T05:02:52;101706.03;;;24.01;100.00
44992;BME280;56865;51.618;7.406;2023-08-21T05:05:22;101710.38;;;24.02;100.00
44992;BME280;56865;51.618;7.406;2023-08-21T05:07:52;101711.16;;;24.09;100.00
44992;BME280;56865;51.618;7.406;2023-08-21T05:10:24;101711.03;;;24.20;100.00
44992;BME280;56865;51.618;7.406;2023-08-21T05:12:56;101710.03;;;24.30;100.00
44992;BME280;56865;51.618;7.406;2023-08-21T05:15:26;101698.44;;;23.81;100.00
44992;BME280;56865;51.618;7.406;2023-08-21T05:17:55;101701.59;;;24.10;100.00
44992;BME280;56865;51.618;7.406;2023-08-21T05:20:25;101713.81;;;24.05;100.00
44992;BME280;56865;51.618;7.406;2023-08-21T05:22:55;101730.63;;;24.47;100.00
44992;BME280;56865;51.618;7.406;2023-08-21T05:25:27;101721.28;;;24.34;100.00
44992;BME280;56865;51.618;7.406;2023-08-21T05:27:57;101724.75;;;24.95;100.00
44992;BME280;56865;51.618;7.406;2023-08-21T05:30:27;101719.16;;;25.19;100.00
44992;BME280;56865;51.618;7.406;2023-08-21T05:32:56;101721.53;;;25.33;100.00
44992;BME280;56865;51.618;7.406;2023-08-21T05:35:26;101726.44;;;25.53;100.00
44992;BME280;56865;51.618;7.406;2023-08-21T05:37:56;101728.09;;;25.57;100.00
44992;BME280;56865;51.618;7.406;2023-08-21T05:40:28;101731.50;;;25.60;100.00
44992;BME280;56865;51.618;7.406;2023-08-21T05:42:58;101713.22;;;25.60;100.00
44992;BME280;56865;51.618;7.406;2023-08-21T05:45:28;101713.19;;;25.63;100.00
44992;BME280;56865;51.618;7.406;2023-08-21T05:47:59;101717.22;;;25.78;100.00
44992;BME280;56865;51.618;7.406;2023-08-21T05:50:29;101723.94;;;25.92;100.00
44992;BME280;56865;51.618;7.406;2023-08-21T05:52:59;101723.06;;;25.93;100.00
44992;BME280;56865;51.618;7.406;2023-08-21T05:55:31;101737.16;;;25.84;100.00
44992;BME280;56865;51.618;7.406;2023-08-21T05:58:03;101725.19;;;25.74;100.00
44992;BME280;56865;51.618;7.406;2023-08-21T06:00:32;101719.03;;;25.76;100.00
44992;BME280;56865;51.618;7.406;2023-08-21T06:03:03;101724.19;;;25.81;100.00
44992;BME280;56865;51.618;7.406;2023-08-21T06:05:32;101731.13;;;25.80;100.00
44992;BME280;56865;51.618;7.406;2023-08-21T06:08:02;101739.22;;;26.14;100.00
44992;BME280;56865;51.618;7.406;2023-08-21T06:10:38;101722.72;;;26.10;100.00
44992;BME280;56865;51.618;7.406;2023-08-21T06:13:07;101717.44;;;26.13;100.00
44992;BME280;56865;51.618;7.406;2023-08-21T06:15:37;101715.69;;;26.15;100.00
44992;BME280;56865;51.618;7.406;2023-08-21T06:18:07;101730.91;;;26.37;100.00
44992;BME280;56865;51.618;7.406;2023-08-21T06:20:37;101730.69;;;26.46;100.00
44992;BME280;56865;51.618;7.406;2023-08-21T06:23:06;101729.34;;;26.67;100.00
44992;BME280;56865;51.618;7.406;2023-08-21T06:25:39;101726.56;;;26.75;100.00
44992;BME280;56865;51.618;7.406;2023-08-21T06:28:10;101731.56;;;26.86;100.00
44992;BME280;56865;51.618;7.406;2023-08-21T06:30:40;101730.19;;;27.05;100.00
44992;BME280;56865;51.618;7.406;2023-08-21T06:33:10;101724.63;;;27.19;100.00
44992;BME280;56865;51.618;7.406;2023-08-21T06:35:43;101720.63;;;27.39;100.00
44992;BME280;56865;51.618;7.406;2023-08-21T06:38:13;101723.69;;;27.56;100.00
44992;BME280;56865;51.618;7.406;2023-08-21T06:40:47;101723.41;;;27.67;100.00
44992;BME280;56865;51.618;7.406;2023-08-21T06:43:17;101721.34;;;27.79;100.00
44992;BME280;56865;51.618;7.406;2023-08-21T06:45:48;101719.00;;;27.99;100.00
44992;BME280;56865;51.618;7.406;2023-08-21T06:48:19;101713.56;;;28.07;100.00
44992;BME280;56865;51.618;7.406;2023-08-21T06:50:48;101709.63;;;28.22;100.00
44992;BME280;56865;51.618;7.406;2023-08-21T06:53:18;101699.84;;;28.85;100.00
44992;BME280;56865;51.618;7.406;2023-08-21T06:55:50;101692.13;;;29.06;100.00
44992;BME280;56865;51.618;7.406;2023-08-21T06:58:21;101698.13;;;28.83;100.00
44992;BME280;56865;51.618;7.406;2023-08-21T07:00:50;101713.00;;;28.56;100.00
44992;BME280;56865;51.618;7.406;2023-08-21T07:03:20;101702.25;;;28.35;100.00
44992;BME280;56865;51.618;7.406;2023-08-21T07:05:53;101718.25;;;28.54;100.00
44992;BME280;56865;51.618;7.406;2023-08-21T07:08:23;101699.56;;;28.65;100.00
44992;BME280;56865;51.618;7.406;2023-08-21T07:10:55;101697.50;;;28.76;100.00
44992;BME280;56865;51.618;7.406;2023-08-21T07:13:25;101713.78;;;28.86;100.00
44992;BME280;56865;51.618;7.406;2023-08-21T07:15:55;101693.59;;;29.15;100.00
44992;BME280;56865;51.618;7.406;2023-08-21T07:18:24;101697.16;;;28.87;100.00
44992;BME280;56865;51.618;7.406;2023-08-21T07:20:54;101712.41;;;28.74;100.00
44992;BME280;56865;51.618;7.406;2023-08-21T07:23:24;101712.13;;;29.10;100.00
44992;BME280;56865;51.618;7.406;2023-08-21T07:25:56;101702.69;;;28.78;100.00
44992;BME280;56865;51.618;7.406;2023-08-21T07:28:27;101703.34;;;29.11;100.00
44992;BME280;56865;51.618;7.406;2023-08-21T07:30:57;101690.91;;;29.16;100.00
44992;BME280;56865;51.618;7.406;2023-08-21T07:33:29;101692.47;;;29.22;100.00
44992;BME280;56865;51.618;7.406;2023-08-21T07:36:00;101690.63;;;29.24;100.00
44992;BME280;56865;51.618;7.406;2023-08-21T07:38:30;101693.00;;;29.32;100.00
44992;BME280;56865;51.618;7.406;2023-08-21T07:41:06;101704.97;;;29.41;100.00
44992;BME280;56865;51.618;7.406;2023-08-21T07:43:36;101687.03;;;29.27;100.00
44992;BME280;56865;51.618;7.406;2023-08-21T07:46:07;101701.47;;;29.15;100.00
44992;BME280;56865;51.618;7.406;2023-08-21T07:48:40;101705.06;;;29.12;100.00
44992;BME280;56865;51.618;7.406;2023-08-21T07:51:10;101706.47;;;28.96;100.00
44992;BME280;56865;51.618;7.406;2023-08-21T07:53:39;101710.28;;;28.87;100.00
44992;BME280;56865;51.618;7.406;2023-08-21T07:56:12;101701.72;;;28.80;100.00
44992;BME280;56865;51.618;7.406;2023-08-21T07:58:41;101702.22;;;28.92;100.00
44992;BME280;56865;51.618;7.406;2023-08-21T08:01:11;101703.66;;;29.02;100.00
44992;BME280;56865;51.618;7.406;2023-08-21T08:03:41;101691.28;;;29.06;100.00
44992;BME280;56865;51.618;7.406;2023-08-21T08:06:10;101703.94;;;29.19;100.00
44992;BME280;56865;51.618;7.406;2023-08-21T08:08:40;101706.25;;;29.29;100.00
44992;BME280;56865;51.618;7.406;2023-08-21T08:11:12;101710.28;;;29.39;100.00
44992;BME280;56865;51.618;7.406;2023-08-21T08:13:42;101705.72;;;29.44;100.00
44992;BME280;56865;51.618;7.406;2023-08-21T08:16:12;101704.59;;;29.51;100.00
44992;BME280;56865;51.618;7.406;2023-08-21T08:18:43;101692.06;;;29.60;100.00
44992;BME280;56865;51.618;7.406;2023-08-21T08:21:12;101684.25;;;29.57;100.00
44992;BME280;56865;51.618;7.406;2023-08-21T08:23:42;101684.47;;;29.50;100.00
44992;BME280;56865;51.618;7.406;2023-08-21T08:26:17;101689.94;;;29.44;100.00
44992;BME280;56865;51.618;7.406;2023-08-21T08:28:46;101692.66;;;29.43;100.00
44992;BME280;56865;51.618;7.406;2023-08-21T08:31:16;101686.63;;;29.39;100.00
44992;BME280;56865;51.618;7.406;2023-08-21T08:33:46;101695.91;;;29.49;100.00
44992;BME280;56865;51.618;7.406;2023-08-21T08:36:17;101685.16;;;29.56;100.00
44992;BME280;56865;51.618;7.406;2023-08-21T08:38:46;101672.94;;;29.55;100.00
44992;BME280;56865;51.618;7.406;2023-08-21T08:41:26;101669.19;;;29.62;100.00
44992;BME280;56865;51.618;7.406;2023-08-21T08:43:59;101667.13;;;29.70;100.00
44992;BME280;56865;51.618;7.406;2023-08-21T08:46:30;101673.06;;;29.75;100.00
44992;BME280;56865;51.618;7.406;2023-08-21T08:49:00;101670.84;;;29.88;100.00
44992;BME280;56865;51.618;7.406;2023-08-21T08:51:31;101674.31;;;29.90;100.00
44992;BME280;56865;51.618;7.406;2023-08-21T08:54:01;101675.06;;;29.94;100.00
44992;BME280;56865;51.618;7.406;2023-08-21T08:56:34;101681.22;;;29.93;100.00
44992;BME280;56865;51.618;7.406;2023-08-21T08:59:05;101677.69;;;29.94;100.00
44992;BME280;56865;51.618;7.406;2023-08-21T09:01:35;101686.03;;;30.04;100.00
44992;BME280;56865;51.618;7.406;2023-08-21T09:04:05;101674.56;;;30.06;100.00
44992;BME280;56865;51.618;7.406;2023-08-21T09:06:35;101676.28;;;30.07;100.00
44992;BME280;56865;51.618;7.406;2023-08-21T09:09:06;101666.19;;;30.19;100.00
44992;BME280;56865;51.618;7.406;2023-08-21T09:11:41;101662.53;;;30.23;100.00
44992;BME280;56865;51.618;7.406;2023-08-21T09:14:11;101652.78;;;30.25;100.00
44992;BME280;56865;51.618;7.406;2023-08-21T09:16:58;101663.06;;;30.31;100.00
44992;BME280;56865;51.618;7.406;2023-08-21T09:19:30;101661.25;;;30.33;100.00
44992;BME280;56865;51.618;7.406;2023-08-21T09:22:05;101668.97;;;30.38;100.00
44992;BME280;56865;51.618;7.406;2023-08-21T09:24:37;101633.78;;;30.40;100.00
44992;BME280;56865;51.618;7.406;2023-08-21T09:27:16;101651.00;;;30.49;100.00
44992;BME280;56865;51.618;7.406;2023-08-21T09:29:46;101647.19;;;30.56;100.00
44992;BME280;56865;51.618;7.406;2023-08-21T09:32:15;101636.06;;;30.50;100.00
44992;BME280;56865;51.618;7.406;2023-08-21T09:34:48;101642.78;;;30.57;100.00
44992;BME280;56865;51.618;7.406;2023-08-21T09:37:28;101639.03;;;30.62;100.00
44992;BME280;56865;51.618;7.406;2023-08-21T09:40:00;101632.06;;;30.61;100.00
44992;BME280;56865;51.618;7.406;2023-08-21T09:42:34;101633.91;;;30.59;100.00
44992;BME280;56865;51.618;7.406;2023-08-21T09:45:04;101625.69;;;30.67;100.00
44992;BME280;56865;51.618;7.406;2023-08-21T09:47:34;101631.78;;;30.68;100.00
44992;BME280;56865;51.618;7.406;2023-08-21T09:50:05;101632.41;;;30.74;100.00
44992;BME280;56865;51.618;7.406;2023-08-21T09:52:36;101632.19;;;30.79;100.00
44992;BME280;56865;51.618;7.406;2023-08-21T09:55:07;101621.75;;;30.77;100.00
44992;BME280;56865;51.618;7.406;2023-08-21T09:57:40;101618.44;;;30.72;100.00
44992;BME280;56865;51.618;7.406;2023-08-21T10:00:11;101631.28;;;30.80;100.00
44992;BME280;56865;51.618;7.406;2023-08-21T10:02:51;101626.09;;;30.78;100.00
44992;BME280;56865;51.618;7.406;2023-08-21T10:05:25;101610.81;;;30.87;100.00
44992;BME280;56865;51.618;7.406;2023-08-21T10:08:00;101611.97;;;31.00;100.00
44992;BME280;56865;51.618;7.406;2023-08-21T10:10:30;101601.13;;;31.08;100.00
44992;BME280;56865;51.618;7.406;2023-08-21T10:13:03;101607.38;;;31.05;100.00
44992;BME280;56865;51.618;7.406;2023-08-21T10:15:33;101597.59;;;31.09;100.00
44992;BME280;56865;51.618;7.406;2023-08-21T10:20:58;101584.84;;;30.98;100.00
44992;BME280;56865;51.618;7.406;2023-08-21T10:23:39;101601.78;;;30.92;100.00
44992;BME280;56865;51.618;7.406;2023-08-21T10:26:12;101582.53;;;30.92;100.00
44992;BME280;56865;51.618;7.406;2023-08-21T10:28:45;101586.72;;;30.96;100.00
44992;BME280;56865;51.618;7.406;2023-08-21T10:31:27;101587.72;;;30.93;100.00
44992;BME280;56865;51.618;7.406;2023-08-21T10:33:58;101599.16;;;30.92;100.00
44992;BME280;56865;51.618;7.406;2023-08-21T10:36:37;101593.97;;;30.91;100.00
44992;BME280;56865;51.618;7.406;2023-08-21T10:39:15;101590.13;;;31.19;100.00
44992;BME280;56865;51.618;7.406;2023-08-21T10:41:54;101591.72;;;31.02;100.00
44992;BME280;56865;51.618;7.406;2023-08-21T10:44:36;101593.63;;;30.99;100.00
44992;BME280;56865;51.618;7.406;2023-08-21T10:47:13;101586.72;;;30.96;100.00
44992;BME280;56865;51.618;7.406;2023-08-21T10:49:46;101591.56;;;31.05;100.00
44992;BME280;56865;51.618;7.406;2023-08-21T10:52:20;101583.09;;;30.78;100.00
44992;BME280;56865;51.618;7.406;2023-08-21T10:54:50;101583.50;;;30.89;100.00
44992;BME280;56865;51.618;7.406;2023-08-21T10:57:21;101594.69;;;31.15;100.00
44992;BME280;56865;51.618;7.406;2023-08-21T10:59:58;101582.44;;;31.14;100.00
44992;BME280;56865;51.618;7.406;2023-08-21T11:02:31;101587.06;;;31.28;100.00
44992;BME280;56865;51.618;7.406;2023-08-21T11:05:05;101591.31;;;31.51;100.00
44992;BME280;56865;51.618;7.406;2023-08-21T11:07:38;101588.75;;;31.50;100.00
44992;BME280;56865;51.618;7.406;2023-08-21T11:10:11;101588.81;;;31.67;100.00
44992;BME280;56865;51.618;7.406;2023-08-21T11:12:47;101580.00;;;31.68;100.00
44992;BME280;56865;51.618;7.406;2023-08-21T11:15:20;101570.22;;;31.70;100.00
44992;BME280;56865;51.618;7.406;2023-08-21T11:17:51;101566.53;;;31.74;100.00
44992;BME280;56865;51.618;7.406;2023-08-21T11:20:21;101572.22;;;31.84;100.00
44992;BME280;56865;51.618;7.406;2023-08-21T11:22:55;101577.22;;;32.08;100.00
44992;BME280;56865;51.618;7.406;2023-08-21T11:25:25;101577.84;;;32.13;100.00
44992;BME280;56865;51.618;7.406;2023-08-21T11:27:58;101576.34;;;32.07;100.00
44992;BME280;56865;51.618;7.406;2023-08-21T11:30:35;101572.41;;;32.16;100.00
44992;BME280;56865;51.618;7.406;2023-08-21T11:33:06;101572.78;;;32.08;100.00
44992;BME280;56865;51.618;7.406;2023-08-21T11:35:37;101570.22;;;32.26;100.00
44992;BME280;56865;51.618;7.406;2023-08-21T11:38:14;101569.13;;;32.48;100.00
44992;BME280;56865;51.618;7.406;2023-08-21T11:40:50;101571.13;;;32.42;100.00
44992;BME280;56865;51.618;7.406;2023-08-21T11:43:20;101574.09;;;32.54;100.00
44992;BME280;56865;51.618;7.406;2023-08-21T11:45:53;101558.63;;;32.64;100.00
44992;BME280;56865;51.618;7.406;2023-08-21T11:48:24;101557.19;;;32.40;100.00
44992;BME280;56865;51.618;7.406;2023-08-21T11:50:54;101559.34;;;32.32;100.00
44992;BME280;56865;51.618;7.406;2023-08-21T11:53:30;101554.53;;;32.58;100.00
44992;BME280;56865;51.618;7.406;2023-08-21T11:56:00;101549.31;;;32.74;100.00
44992;BME280;56865;51.618;7.406;2023-08-21T11:58:30;101549.06;;;32.96;100.00
44992;BME280;56865;51.618;7.406;2023-08-21T12:01:05;101551.22;;;32.88;100.00
44992;BME280;56865;51.618;7.406;2023-08-21T12:03:39;101549.06;;;32.96;100.00
44992;BME280;56865;51.618;7.406;2023-08-21T12:06:10;101549.28;;;32.92;100.00
44992;BME280;56865;51.618;7.406;2023-08-21T12:08:43;101549.47;;;32.71;100.00
44992;BME280;56865;51.618;7.406;2023-08-21T12:11:13;101545.94;;;32.70;100.00
44992;BME280;56865;51.618;7.406;2023-08-21T12:13:42;101543.41;;;32.69;100.00
44992;BME280;56865;51.618;7.406;2023-08-21T12:16:15;101546.91;;;32.87;100.00
44992;BME280;56865;51.618;7.406;2023-08-21T12:18:46;101539.41;;;32.95;100.00
44992;BME280;56865;51.618;7.406;2023-08-21T12:21:17;101544.13;;;33.22;100.00
44992;BME280;56865;51.618;7.406;2023-08-21T12:23:48;101540.88;;;33.01;100.00
44992;BME280;56865;51.618;7.406;2023-08-21T12:26:17;101538.19;;;33.18;100.00
44992;BME280;56865;51.618;7.406;2023-08-21T12:28:52;101538.66;;;33.43;100.00
44992;BME280;56865;51.618;7.406;2023-08-21T12:31:24;101529.59;;;33.63;100.00
44992;BME280;56865;51.618;7.406;2023-08-21T12:33:55;101518.41;;;33.74;100.00
44992;BME280;56865;51.618;7.406;2023-08-21T12:36:26;101514.81;;;33.91;100.00
44992;BME280;56865;51.618;7.406;2023-08-21T12:38:56;101514.09;;;34.03;100.00
44992;BME280;56865;51.618;7.406;2023-08-21T12:41:26;101508.63;;;34.06;100.00
44992;BME280;56865;51.618;7.406;2023-08-21T12:43:56;101511.78;;;34.13;100.00
44992;BME280;56865;51.618;7.406;2023-08-21T12:46:28;101519.75;;;33.81;100.00
44992;BME280;56865;51.618;7.406;2023-08-21T12:48:58;101511.19;;;33.61;100.00
44992;BME280;56865;51.618;7.406;2023-08-21T12:51:29;101516.72;;;33.41;100.00
44992;BME280;56865;51.618;7.406;2023-08-21T12:53:59;101507.97;;;33.06;100.00
44992;BME280;56865;51.618;7.406;2023-08-21T12:56:28;101503.38;;;33.10;100.00
44992;BME280;56865;51.618;7.406;2023-08-21T12:58:58;101502.00;;;33.03;100.00
44992;BME280;56865;51.618;7.406;2023-08-21T13:01:32;101507.94;;;32.90;100.00
44992;BME280;56865;51.618;7.406;2023-08-21T13:04:06;101506.28;;;33.05;100.00